Time;durP1;ratioP1;P1;durP2;ratioP2;P2;SDS_P1;SDS_P2;PMS_P1;PMS_P2;Temp;Humidity;BMP_temperature;BMP_pressure;BME280_temperature;BME280_humidity;BME280_pressure;Samples;Min_cycle;Max_cycle;Signal;HPM_P1;HPM_P2
2021/03/29 00:00:19;;;;;;;18.88;3.25;;;;;;;;;;4976375;28;20530;-64
2021/03/29 00:02:47;;;;;;;12.98;3.28;;;;;;;;;;4987178;28;20039;-64
2021/03/29 00:05:17;;;;;;;13.10;3.33;;;;;;;;;;4982551;28;20135;-64
2021/03/29 00:07:47;;;;;;;10.18;3.55;;;;;;;;;;4985129;28;20038;-64
2021/03/29 00:10:13;;;;;;;13.32;3.55;;;;;;;;;;4971485;28;21181;-63
2021/03/29 00:12:41;;;;;;;13.10;3.45;;;;;;;;;;4974107;28;20040;-64
2021/03/29 00:15:10;;;;;;;10.30;3.25;;;;;;;;;;4967678;28;20053;-63
2021/03/29 00:17:38;;;;;;;7.60;3.30;;;;;;;;;;4980331;28;20030;-64
2021/03/29 00:20:34;;;;;;;12.00;3.85;;;;;;;;;;4981978;28;20549;-64
2021/03/29 00:23:02;;;;;;;17.15;3.22;;;;;;;;;;4953186;28;20516;-64
2021/03/29 00:25:30;;;;;;;8.68;3.58;;;;;;;;;;4969583;28;20054;-64
2021/03/29 00:27:57;;;;;;;11.48;3.72;;;;;;;;;;4981899;28;20435;-63
2021/03/29 00:30:27;;;;;;;12.30;4.00;;;;;;;;;;4982608;28;20092;-64
2021/03/29 00:32:56;;;;;;;14.02;3.80;;;;;;;;;;4997124;28;20041;-63
2021/03/29 00:35:23;;;;;;;11.20;3.80;;;;;;;;;;4985803;28;20104;-64
2021/03/29 00:37:50;;;;;;;13.52;4.20;;;;;;;;;;4985393;28;20037;-64
2021/03/29 00:40:17;;;;;;;10.65;3.70;;;;;;;;;;4980777;28;20443;-64
2021/03/29 00:42:48;;;;;;;11.80;4.00;;;;;;;;;;4981432;28;20063;-64
2021/03/29 00:45:18;;;;;;;10.65;4.15;;;;;;;;;;4969207;28;20096;-64
2021/03/29 00:47:45;;;;;;;13.07;4.10;;;;;;;;;;4984614;28;20448;-64
2021/03/29 00:50:18;;;;;;;14.32;3.80;;;;;;;;;;4982382;28;23332;-64
2021/03/29 00:52:46;;;;;;;15.80;3.92;;;;;;;;;;4978532;28;20128;-64
2021/03/29 00:55:13;;;;;;;11.48;3.80;;;;;;;;;;4982497;28;20026;-64
2021/03/29 00:57:39;;;;;;;9.32;3.60;;;;;;;;;;4984574;28;20100;-64
2021/03/29 01:00:25;;;;;;;10.50;4.10;;;;;;;;;;4983801;28;20048;-64
2021/03/29 01:02:51;;;;;;;16.52;4.88;;;;;;;;;;4980863;28;20697;-64
2021/03/29 01:05:19;;;;;;;20.35;4.70;;;;;;;;;;4994890;28;20034;-63
2021/03/29 01:07:49;;;;;;;14.07;3.92;;;;;;;;;;4978285;28;20030;-63
2021/03/29 01:10:17;;;;;;;18.02;4.15;;;;;;;;;;4983517;28;20037;-65
2021/03/29 01:12:47;;;;;;;14.13;3.95;;;;;;;;;;4981794;28;21757;-64
2021/03/29 01:15:17;;;;;;;16.05;4.40;;;;;;;;;;4981190;28;20050;-64
2021/03/29 01:17:47;;;;;;;12.10;4.13;;;;;;;;;;4988777;28;20545;-63
2021/03/29 01:20:18;;;;;;;11.27;4.30;;;;;;;;;;4978962;28;20148;-64
2021/03/29 01:22:47;;;;;;;14.40;4.07;;;;;;;;;;4986982;28;20079;-64
2021/03/29 01:25:20;;;;;;;17.25;4.40;;;;;;;;;;4982128;28;20037;-63
2021/03/29 01:27:52;;;;;;;17.40;5.10;;;;;;;;;;4983162;28;20041;-64
2021/03/29 01:30:19;;;;;;;17.77;4.70;;;;;;;;;;4989653;28;20034;-63
2021/03/29 01:32:46;;;;;;;13.35;4.13;;;;;;;;;;4972730;28;20462;-63
2021/03/29 01:35:15;;;;;;;14.80;4.88;;;;;;;;;;4974068;28;20088;-63
2021/03/29 01:37:46;;;;;;;13.98;4.72;;;;;;;;;;4965073;28;20504;-63
2021/03/29 01:40:16;;;;;;;14.10;4.15;;;;;;;;;;4980825;28;20045;-63
2021/03/29 01:42:46;;;;;;;16.20;4.55;;;14.40;56.00;;;;;;4977357;28;20492;-64
2021/03/29 01:45:15;;;;;;;11.25;4.40;;;13.80;55.80;;;;;;4982263;28;20407;-63
2021/03/29 01:47:44;;;;;;;15.15;4.35;;;13.70;55.60;;;;;;4975976;28;20526;-64
2021/03/29 01:50:26;;;;;;;13.98;4.60;;;13.70;55.70;;;;;;4973505;28;20518;-64
2021/03/29 01:52:55;;;;;;;14.68;5.35;;;13.70;55.70;;;;;;4978784;28;20084;-64
2021/03/29 01:55:23;;;;;;;8.38;4.15;;;13.70;55.60;;;;;;4979549;28;20042;-63
2021/03/29 01:57:51;;;;;;;17.30;5.55;;;13.70;55.60;;;;;;4982404;28;20037;-64
2021/03/29 02:00:30;;;;;;;9.85;4.90;;;13.70;55.70;;;;;;4981898;28;20097;-63
2021/03/29 02:02:59;;;;;;;14.60;4.47;;;13.70;55.70;;;;;;4991087;28;20038;-63
2021/03/29 02:05:28;;;;;;;12.10;4.38;;;13.70;55.80;;;;;;4983669;28;20030;-63
2021/03/29 02:07:54;;;;;;;19.67;5.85;;;13.70;55.90;;;;;;4974488;28;20527;-64
2021/03/29 02:10:23;;;;;;;12.25;4.55;;;13.70;55.90;;;;;;4995791;28;20088;-63
2021/03/29 02:12:53;;;;;;;12.93;4.93;;;13.80;56.00;;;;;;4982098;28;21563;-63
2021/03/29 02:15:30;;;;;;;13.00;5.20;;;13.80;56.00;;;;;;4981048;28;20034;-64
2021/03/29 02:17:58;;;;;;;13.00;4.60;;;13.90;55.90;;;;;;4984062;28;20099;-63
2021/03/29 02:20:31;;;;;;;13.75;4.68;;;13.90;55.80;;;;;;4978448;28;21180;-63
2021/03/29 02:22:57;;;;;;;12.13;4.47;;;14.00;55.70;;;;;;4982063;28;20034;-63
2021/03/29 02:25:26;;;;;;;11.80;4.72;;;14.00;55.60;;;;;;4977542;28;20605;-63
2021/03/29 02:27:52;;;;;;;16.60;4.63;;;14.10;55.50;;;;;;4962126;28;20768;-64
2021/03/29 02:30:21;;;;;;;14.52;4.85;;;;;;;;;;4961668;28;20416;-64
2021/03/29 02:32:48;;;;;;;10.07;4.13;;;;;;;;;;4977841;28;20128;-63
2021/03/29 02:35:14;;;;;;;11.27;4.85;;;;;;;;;;4983854;28;20033;-63
2021/03/29 02:37:45;;;;;;;12.38;4.63;;;;;;;;;;4981466;28;20049;-64
2021/03/29 02:40:11;;;;;;;10.02;4.18;;;;;;;;;;4982203;28;20225;-63
2021/03/29 02:42:37;;;;;;;10.15;4.80;;;;;;;;;;4986331;28;20034;-63
2021/03/29 02:45:08;;;;;;;10.02;4.68;;;;;;;;;;4985404;28;20034;-62
2021/03/29 02:47:35;;;;;;;11.45;4.70;;;;;;;;;;4983107;28;20381;-63
2021/03/29 02:50:05;;;;;;;8.90;4.35;;;;;;;;;;4987573;28;20565;-63
2021/03/29 02:52:34;;;;;;;11.18;4.47;;;;;;;;;;4978839;28;20116;-63
2021/03/29 02:55:00;;;;;;;15.48;4.82;;;;;;;;;;4977178;28;20489;-63
2021/03/29 02:57:28;;;;;;;13.52;4.75;;;;;;;;;;4983254;28;20076;-63
2021/03/29 02:59:56;;;;;;;10.18;4.38;;;;;;;;;;4975052;28;20732;-63
2021/03/29 03:02:22;;;;;;;15.15;4.90;;;;;;;;;;4977887;28;20050;-63
2021/03/29 03:04:50;;;;;;;12.00;4.28;;;;;;;;;;4981053;28;20504;-63
2021/03/29 03:07:17;;;;;;;11.32;4.25;;;14.20;54.80;;;;;;4973588;28;20047;-64
2021/03/29 03:09:43;;;;;;;15.50;5.13;;;14.20;54.80;;;;;;4961298;28;20045;-63
2021/03/29 03:12:09;;;;;;;19.50;4.80;;;14.30;54.80;;;;;;4979600;28;20046;-64
2021/03/29 03:14:36;;;;;;;10.18;4.25;;;14.40;54.70;;;;;;4969260;28;20046;-63
2021/03/29 03:17:04;;;;;;;16.50;5.10;;;;;;;;;;4982070;28;20038;-63
2021/03/29 03:19:30;;;;;;;13.55;4.90;;;;;;;;;;4979258;28;20096;-64
2021/03/29 03:21:56;;;;;;;14.52;4.43;;;;;;;;;;4978549;28;20042;-63
2021/03/29 03:24:32;;;;;;;10.57;4.28;;;14.40;54.50;;;;;;4985749;28;20041;-63
2021/03/29 03:27:03;;;;;;;11.75;4.53;;;14.60;54.60;;;;;;4984460;28;20123;-63
2021/03/29 03:29:32;;;;;;;12.25;4.50;;;;;;;;;;4971586;28;20495;-64
2021/03/29 03:32:00;;;;;;;8.95;3.88;;;;;;;;;;4980174;28;20064;-63
2021/03/29 03:34:26;;;;;;;12.75;4.47;;;;;;;;;;4978585;28;20192;-63
2021/03/29 03:36:55;;;;;;;11.02;4.28;;;;;;;;;;4985262;28;20053;-63
2021/03/29 03:39:22;;;;;;;8.95;3.95;;;;;;;;;;4986950;28;20116;-63
2021/03/29 03:41:50;;;;;;;11.77;4.93;;;;;;;;;;4988784;28;20049;-64
2021/03/29 03:44:16;;;;;;;13.07;4.07;;;;;;;;;;4994152;28;20169;-63
2021/03/29 03:46:44;;;;;;;14.60;4.78;;;;;;;;;;4980585;28;20042;-63
2021/03/29 03:49:18;;;;;;;11.82;4.57;;;14.60;54.10;;;;;;4980730;28;20515;-64
2021/03/29 03:51:47;;;;;;;13.68;4.50;;;14.80;53.00;;;;;;4984473;28;20049;-63
2021/03/29 03:54:13;;;;;;;10.77;4.45;;;14.90;53.20;;;;;;4981513;28;20116;-64
2021/03/29 03:56:47;;;;;;;12.40;4.43;;;14.90;53.30;;;;;;4972649;28;20037;-64
2021/03/29 03:59:12;;;;;;;18.40;4.13;;;14.90;53.20;;;;;;4983412;28;20045;-63
2021/03/29 04:01:57;;;;;;;12.40;4.25;;;14.90;53.10;;;;;;4970073;28;20065;-63
2021/03/29 04:04:26;;;;;;;12.65;4.60;;;14.90;53.10;;;;;;4979125;28;20095;-64
2021/03/29 04:06:51;;;;;;;10.85;4.57;;;14.90;53.10;;;;;;4973079;28;20053;-63
2021/03/29 04:09:19;;;;;;;10.80;4.03;;;14.90;53.00;;;;;;4969089;28;20038;-63
2021/03/29 04:11:50;;;;;;;12.43;3.85;;;14.90;53.60;;;;;;4980242;28;21495;-63
2021/03/29 04:14:18;;;;;;;10.68;4.00;;;14.90;52.90;;;;;;4978255;28;20142;-64
2021/03/29 04:16:44;;;;;;;19.67;5.38;;;14.90;52.90;;;;;;4983891;28;20449;-63
2021/03/29 04:19:09;;;;;;;11.20;3.90;;;14.90;53.30;;;;;;4980319;28;20041;-63
2021/03/29 04:21:35;;;;;;;13.40;4.85;;;;;;;;;;4978516;28;20165;-63
2021/03/29 04:24:03;;;;;;;15.95;4.40;;;;;;;;;;4981074;28;20262;-64
2021/03/29 04:26:32;;;;;;;8.52;3.80;;;;;;;;;;4981867;28;20133;-64
2021/03/29 04:29:00;;;;;;;12.35;3.97;;;;;;;;;;4969026;28;20062;-64
2021/03/29 04:31:26;;;;;;;12.32;3.97;;;;;;;;;;4960352;28;20037;-64
2021/03/29 04:33:52;;;;;;;9.27;4.38;;;;;;;;;;4977137;28;20050;-64
2021/03/29 04:36:23;;;;;;;8.55;3.72;;;;;;;;;;4985645;28;20462;-64
2021/03/29 04:38:49;;;;;;;14.18;3.80;;;;;;;;;;4984083;28;20040;-64
2021/03/29 04:41:17;;;;;;;12.30;3.42;;;;;;;;;;4992168;28;20416;-63
2021/03/29 04:43:43;;;;;;;8.57;4.00;;;;;;;;;;4985873;28;20114;-63
2021/03/29 04:46:11;;;;;;;12.68;4.40;;;;;;;;;;4977625;28;20027;-64
2021/03/29 04:48:40;;;;;;;12.80;3.63;;;;;;;;;;4976212;28;20520;-64
2021/03/29 04:51:06;;;;;;;7.57;3.83;;;;;;;;;;4966739;28;20105;-64
2021/03/29 04:53:32;;;;;;;10.77;3.85;;;;;;;;;;4980561;28;20046;-64
2021/03/29 04:56:03;;;;;;;12.57;3.78;;;;;;;;;;4983109;28;20129;-63
2021/03/29 04:58:29;;;;;;;10.55;4.05;;;;;;;;;;4973569;28;20096;-63
2021/03/29 05:00:55;;;;;;;12.63;3.72;;;;;;;;;;4970469;28;20050;-63
2021/03/29 05:03:21;;;;;;;13.38;4.13;;;;;;;;;;4969300;28;20052;-63
2021/03/29 05:05:50;;;;;;;9.68;3.85;;;;;;;;;;4980548;28;20026;-63
2021/03/29 05:08:16;;;;;;;11.15;3.90;;;;;;;;;;4994090;28;20052;-64
2021/03/29 05:10:42;;;;;;;9.70;3.58;;;;;;;;;;4973471;28;20065;-63
2021/03/29 05:13:08;;;;;;;10.75;3.55;;;;;;;;;;4973399;28;20038;-63
2021/03/29 05:15:36;;;;;;;9.45;3.75;;;;;;;;;;4953341;28;20592;-63
2021/03/29 05:18:03;;;;;;;12.85;4.32;;;;;;;;;;4973799;28;20038;-64
2021/03/29 05:20:29;;;;;;;12.75;4.10;;;;;;;;;;4972304;28;20072;-64
2021/03/29 05:22:54;;;;;;;13.80;3.75;;;;;;;;;;4976240;28;20117;-64
2021/03/29 05:25:23;;;;;;;14.15;3.55;;;;;;;;;;4979125;28;20034;-64
2021/03/29 05:27:53;;;;;;;17.33;4.40;;;;;;;;;;4974977;28;20560;-63
2021/03/29 05:30:19;;;;;;;12.57;4.25;;;;;;;;;;4981365;28;20118;-64
2021/03/29 05:32:45;;;;;;;7.70;3.05;;;;;;;;;;4974580;28;20116;-64
2021/03/29 05:35:16;;;;;;;15.55;3.85;;;;;;;;;;4952952;28;20046;-64
2021/03/29 05:37:44;;;;;;;14.80;4.13;;;;;;;;;;4959339;28;20562;-63
2021/03/29 05:40:16;;;;;;;12.48;3.92;;;;;;;;;;4998036;28;20049;-64
2021/03/29 05:42:45;;;;;;;11.57;4.22;;;;;;;;;;4980166;28;20042;-64
2021/03/29 05:45:14;;;;;;;15.95;4.00;;;;;;;;;;4975757;28;20108;-63
2021/03/29 05:47:40;;;;;;;11.88;4.18;;;;;;;;;;4973153;28;20073;-64
2021/03/29 05:50:11;;;;;;;8.20;3.95;;;;;;;;;;4975903;28;20400;-64
2021/03/29 05:52:40;;;;;;;9.55;3.70;;;;;;;;;;4971588;28;20069;-64
2021/03/29 05:55:21;;;;;;;11.43;4.25;;;;;;;;;;4977073;28;20077;-64
2021/03/29 05:58:30;;;;;;;15.35;3.72;;;;;;;;;;4986745;28;20034;-64
2021/03/29 06:00:36;;;;;;;11.00;4.05;;;;;;;;;;4987029;28;20045;-63
2021/03/29 06:03:40;;;;;;;12.60;3.83;;;;;;;;;;4983946;28;20535;-64
2021/03/29 06:06:14;;;;;;;14.27;4.13;;;;;;;;;;4942225;28;20047;-63
2021/03/29 06:08:43;;;;;;;14.90;4.28;;;;;;;;;;4944855;28;20600;-64
2021/03/29 06:11:23;;;;;;;11.50;3.42;;;;;;;;;;4969754;28;20041;-64
2021/03/29 06:14:05;;;;;;;13.23;4.72;;;;;;;;;;5002839;28;20720;-64
2021/03/29 06:16:31;;;;;;;11.27;4.25;;;;;;;;;;4982136;28;20037;-64
2021/03/29 06:18:57;;;;;;;14.43;3.88;;;;;;;;;;5003342;28;20519;-64
2021/03/29 06:21:23;;;;;;;7.78;3.78;;;;;;;;;;4985103;28;20180;-64
2021/03/29 06:24:02;;;;;;;14.88;4.30;;;;;;;;;;4984700;28;20042;-64
2021/03/29 06:26:32;;;;;;;12.95;3.55;;;;;;;;;;4995170;28;20050;-64
2021/03/29 06:28:58;;;;;;;9.98;3.78;;;;;;;;;;4996552;28;20152;-64
2021/03/29 06:31:25;;;;;;;11.25;3.90;;;;;;;;;;4984346;28;20125;-64
2021/03/29 06:33:52;;;;;;;11.25;3.65;;;;;;;;;;4988438;28;20834;-63
2021/03/29 06:36:24;;;;;;;12.63;4.20;;;;;;;;;;4984496;28;20128;-64
2021/03/29 06:38:50;;;;;;;12.77;3.95;;;;;;;;;;4984644;28;20053;-63
2021/03/29 06:41:23;;;;;;;11.63;4.28;;;;;;;;;;4994116;28;20396;-64
2021/03/29 06:43:49;;;;;;;14.73;4.28;;;;;;;;;;4969569;28;20942;-63
2021/03/29 06:46:26;;;;;;;9.85;3.63;;;;;;;;;;4973259;28;20384;-64
2021/03/29 06:48:53;;;;;;;15.27;4.22;;;;;;;;;;4983673;28;20062;-64
2021/03/29 06:51:22;;;;;;;16.15;4.88;;;14.90;52.80;;;;;;4984126;28;20042;-64
2021/03/29 06:53:59;;;;;;;12.27;3.97;;;15.80;51.10;;;;;;4988183;28;20050;-64
2021/03/29 06:56:42;;;;;;;10.77;4.38;;;15.70;50.80;;;;;;4989533;28;20039;-64
2021/03/29 06:59:14;;;;;;;15.77;3.90;;;15.70;51.30;;;;;;4985593;28;20581;-64
2021/03/29 07:01:49;;;;;;;11.70;3.95;;;15.70;51.60;;;;;;4987139;28;20514;-63
2021/03/29 07:04:21;;;;;;;14.88;4.47;;;15.80;51.60;;;;;;4988066;28;20054;-64
2021/03/29 07:06:50;;;;;;;14.57;4.10;;;16.00;51.40;;;;;;4990353;28;20116;-64
2021/03/29 07:09:23;;;;;;;11.63;4.40;;;16.30;51.10;;;;;;4990492;28;20132;-63
2021/03/29 07:11:48;;;;;;;11.57;4.00;;;16.40;50.70;;;;;;4980235;28;20623;-64
2021/03/29 07:14:26;;;;;;;9.55;4.03;;;16.60;50.40;;;;;;4974566;28;20053;-64
2021/03/29 07:16:54;;;;;;;17.05;5.35;;;16.60;50.20;;;;;;4980269;28;20558;-64
2021/03/29 07:19:21;;;;;;;11.52;4.13;;;16.70;50.20;;;;;;4986857;28;20050;-64
2021/03/29 07:21:47;;;;;;;13.10;4.07;;;16.70;50.00;;;;;;4979614;28;20115;-64
2021/03/29 07:24:14;;;;;;;12.20;4.00;;;16.80;49.90;;;;;;4981644;28;20112;-64
2021/03/29 07:26:48;;;;;;;10.27;4.72;;;16.90;49.90;;;;;;4969555;28;20030;-64
2021/03/29 07:29:28;;;;;;;10.18;3.85;;;17.00;49.80;;;;;;4982066;28;20125;-64
2021/03/29 07:32:05;;;;;;;16.42;4.10;;;17.10;49.60;;;;;;4987483;28;20042;-64
2021/03/29 07:34:51;;;;;;;11.88;3.85;;;17.20;49.40;;;;;;4979376;28;20042;-64
2021/03/29 07:37:44;;;;;;;9.75;3.95;;;17.40;49.20;;;;;;4993353;28;20045;-63
2021/03/29 07:40:17;;;;;;;13.57;4.35;;;17.50;48.80;;;;;;4988359;28;20145;-63
2021/03/29 07:42:44;;;;;;;15.40;4.00;;;17.60;48.50;;;;;;4985326;28;20042;-63
2021/03/29 07:45:17;;;;;;;10.70;4.40;;;17.70;48.40;;;;;;4978096;28;20133;-63
2021/03/29 07:47:50;;;;;;;14.38;5.05;;;17.80;48.20;;;;;;4975281;28;20456;-64
2021/03/29 07:50:38;;;;;;;10.95;4.60;;;18.00;48.00;;;;;;4987447;28;20839;-64
2021/03/29 07:53:18;;;;;;;13.05;4.80;;;18.00;47.60;;;;;;4989055;28;20038;-64
2021/03/29 07:55:46;;;;;;;12.75;4.00;;;;;;;;;;4998622;28;20096;-64
2021/03/29 07:58:16;;;;;;;14.48;4.60;;;;;;;;;;4999584;28;20045;-64
2021/03/29 08:01:09;;;;;;;17.05;4.13;;;18.10;47.40;;;;;;4994856;28;20030;-63
2021/03/29 08:03:39;;;;;;;15.85;4.55;;;18.10;47.40;;;;;;4991978;28;20065;-64
2021/03/29 08:06:07;;;;;;;11.05;4.15;;;18.30;47.30;;;;;;4992503;28;20034;-64
2021/03/29 08:08:41;;;;;;;11.95;4.43;;;18.40;47.70;;;;;;4994664;28;20034;-64
2021/03/29 08:11:17;;;;;;;9.50;3.85;;;18.60;46.90;;;;;;4993364;28;20392;-64
2021/03/29 08:13:47;;;;;;;12.95;4.75;;;;;;;;;;4993418;28;20470;-65
2021/03/29 08:16:22;;;;;;;12.65;3.65;;;;;;;;;;4995482;28;20061;-64
2021/03/29 08:19:07;;;;;;;10.00;4.18;;;;;;;;;;4975495;28;20334;-64
2021/03/29 08:21:59;;;;;;;10.88;4.13;;;;;;;;;;4985384;28;20049;-64
2021/03/29 08:24:42;;;;;;;11.88;4.38;;;18.80;46.50;;;;;;4971506;28;20054;-64
2021/03/29 08:27:28;;;;;;;7.55;3.33;;;;;;;;;;4992672;28;20713;-64
2021/03/29 08:29:56;;;;;;;9.80;3.70;;;;;;;;;;4996915;28;20078;-65
2021/03/29 08:32:33;;;;;;;12.85;3.83;;;;;;;;;;4989470;28;20049;-65
2021/03/29 08:35:04;;;;;;;18.40;4.15;;;;;;;;;;4982957;28;20515;-65
2021/03/29 08:37:40;;;;;;;10.57;3.40;;;;;;;;;;4962774;28;20444;-65
2021/03/29 08:40:10;;;;;;;8.63;3.42;;;;;;;;;;4973583;28;20049;-65
2021/03/29 08:42:37;;;;;;;10.82;3.10;;;;;;;;;;4985716;28;20263;-65
2021/03/29 08:45:10;;;;;;;10.02;3.42;;;;;;;;;;4948352;28;20548;-64
2021/03/29 08:47:37;;;;;;;10.35;3.95;;;;;;;;;;4987209;28;20514;-65
2021/03/29 08:50:06;;;;;;;11.45;3.42;;;;;;;;;;4959685;28;20033;-66
2021/03/29 08:52:39;;;;;;;8.68;3.50;;;;;;;;;;4965483;28;20143;-67
2021/03/29 08:55:05;;;;;;;10.05;3.78;;;;;;;;;;4959742;28;20050;-66
2021/03/29 08:57:34;;;;;;;7.68;3.53;;;;;;;;;;4962375;28;20153;-65
2021/03/29 09:00:07;;;;;;;11.40;3.75;;;23.70;40.80;;;;;;4969598;28;20057;-65
2021/03/29 09:02:33;;;;;;;8.80;2.85;;;31.80;26.70;;;;;;4980244;28;20119;-65
2021/03/29 09:05:05;;;;;;;10.18;3.15;;;31.40;26.60;;;;;;4982218;28;20065;-65
2021/03/29 09:07:35;;;;;;;8.50;3.45;;;;;;;;;;4976053;28;20243;-65
2021/03/29 09:10:03;;;;;;;7.93;3.30;;;;;;;;;;4981847;28;20349;-65
2021/03/29 09:12:31;;;;;;;7.68;3.20;;;;;;;;;;4981194;28;20117;-65
2021/03/29 09:14:58;;;;;;;8.15;3.55;;;;;;;;;;4983023;28;21618;-66
2021/03/29 09:17:25;;;;;;;7.45;2.95;;;;;;;;;;4978487;28;20045;-66
2021/03/29 09:19:55;;;;;;;10.63;3.95;;;;;;;;;;4998651;28;20042;-65
2021/03/29 09:22:29;;;;;;;11.15;3.60;;;;;;;;;;4984384;28;20633;-66
2021/03/29 09:24:55;;;;;;;12.70;3.65;;;;;;;;;;4973199;28;20042;-65
2021/03/29 09:27:28;;;;;;;6.53;3.58;;;;;;;;;;4975320;28;20049;-65
2021/03/29 09:29:54;;;;;;;8.73;3.22;;;;;;;;;;4982583;28;20038;-64
2021/03/29 09:32:21;;;;;;;9.82;3.15;;;;;;;;;;4979131;28;20416;-65
2021/03/29 09:34:48;;;;;;;11.02;3.20;;;;;;;;;;4973331;28;20518;-65
2021/03/29 09:37:20;;;;;;;6.20;2.92;;;;;;;;;;4989017;28;20037;-65
2021/03/29 09:39:47;;;;;;;8.32;3.50;;;;;;;;;;4978666;28;20483;-65
2021/03/29 09:42:16;;;;;;;9.95;3.80;;;;;;;;;;4987847;28;20037;-65
2021/03/29 09:44:42;;;;;;;11.35;3.28;;;;;;;;;;4957527;28;20053;-65
2021/03/29 09:47:08;;;;;;;11.20;3.55;;;;;;;;;;4959846;28;20710;-65
2021/03/29 09:49:48;;;;;;;10.10;3.08;;;;;;;;;;4988555;28;20496;-65
2021/03/29 09:52:14;;;;;;;11.23;3.72;;;;;;;;;;4976277;28;20116;-65
2021/03/29 09:54:49;;;;;;;9.30;2.97;;;;;;;;;;4978306;28;20104;-66
2021/03/29 09:57:19;;;;;;;10.98;3.25;;;;;;;;;;4974153;28;20049;-65
2021/03/29 09:59:45;;;;;;;8.75;3.30;;;31.50;26.80;;;;;;4973704;28;20141;-65
2021/03/29 10:02:13;;;;;;;11.90;3.75;;;35.90;23.10;;;;;;4967776;28;20615;-65
2021/03/29 10:04:40;;;;;;;8.75;3.33;;;35.70;23.10;;;;;;4974066;28;20146;-65
2021/03/29 10:07:11;;;;;;;8.13;3.13;;;;;;;;;;4967857;28;20116;-65
2021/03/29 10:09:37;;;;;;;7.82;3.25;;;;;;;;;;4974160;28;20042;-65
2021/03/29 10:12:04;;;;;;;10.10;3.65;;;;;;;;;;4968985;28;20041;-65
2021/03/29 10:14:40;;;;;;;6.60;2.80;;;35.50;23.00;;;;;;4961744;28;20046;-65
2021/03/29 10:17:20;;;;;;;10.20;3.58;;;34.40;23.60;;;;;;4964346;28;20045;-64
2021/03/29 10:19:48;;;;;;;7.85;3.53;;;;;;;;;;4971192;28;20038;-65
2021/03/29 10:22:19;;;;;;;9.23;3.38;;;;;;;;;;4969410;28;20053;-65
2021/03/29 10:25:05;;;;;;;8.45;3.40;;;;;;;;;;4975917;28;20778;-64
2021/03/29 10:27:37;;;;;;;7.57;3.45;;;;;;;;;;4975878;28;20041;-64
2021/03/29 10:30:06;;;;;;;14.35;3.90;;;;;;;;;;4973178;28;20096;-65
2021/03/29 10:32:32;;;;;;;10.75;3.50;;;;;;;;;;4968318;28;20038;-65
2021/03/29 10:35:00;;;;;;;7.50;3.25;;;34.20;24.20;;;;;;4964327;28;20058;-64
2021/03/29 10:37:30;;;;;;;8.45;3.33;;;36.00;23.10;;;;;;4975651;28;20049;-65
2021/03/29 10:39:59;;;;;;;6.70;3.20;;;36.10;23.50;;;;;;4972383;28;20042;-65
2021/03/29 10:42:31;;;;;;;7.50;2.95;;;36.10;22.50;;;;;;4977135;28;20038;-65
2021/03/29 10:44:56;;;;;;;11.85;3.38;;;36.10;23.20;;;;;;4976532;28;20099;-65
2021/03/29 10:47:23;;;;;;;5.00;2.60;;;36.10;23.00;;;;;;4954177;28;20038;-65
2021/03/29 10:49:49;;;;;;;9.43;3.25;;;;;;;;;;4973178;28;20042;-65
2021/03/29 10:52:22;;;;;;;9.48;3.67;;;;;;;;;;4976156;28;20488;-65
2021/03/29 10:54:49;;;;;;;7.28;3.05;;;;;;;;;;4965859;28;20311;-65
2021/03/29 10:57:15;;;;;;;11.85;3.60;;;;;;;;;;4969149;28;20065;-65
2021/03/29 10:59:41;;;;;;;12.55;3.53;;;;;;;;;;4964170;28;20065;-65
2021/03/29 11:02:07;;;;;;;10.30;3.45;;;;;;;;;;4988858;28;20948;-65
2021/03/29 11:04:33;;;;;;;13.60;3.35;;;;;;;;;;4974488;28;20034;-66
2021/03/29 11:06:59;;;;;;;11.93;3.78;;;;;;;;;;4977997;28;20534;-65
2021/03/29 11:09:26;;;;;;;9.60;3.20;;;;;;;;;;4974666;28;20042;-65
2021/03/29 11:11:52;;;;;;;7.68;3.72;;;;;;;;;;4981222;28;20058;-65
2021/03/29 11:14:20;;;;;;;8.30;3.72;;;36.10;23.00;;;;;;4982570;28;20138;-65
2021/03/29 11:16:49;;;;;;;11.40;3.88;;;;;;;;;;4983620;23;23574;-64
2021/03/29 11:19:17;;;;;;;11.38;3.60;;;;;;;;;;4965315;28;20038;-64
2021/03/29 11:21:43;;;;;;;9.65;3.25;;;;;;;;;;4968069;28;20039;-64
2021/03/29 11:24:12;;;;;;;10.15;3.75;;;;;;;;;;4959450;28;20039;-64
2021/03/29 11:26:38;;;;;;;7.13;3.45;;;;;;;;;;4960021;28;20041;-63
2021/03/29 11:29:04;;;;;;;7.90;3.25;;;;;;;;;;4981007;28;20038;-64
2021/03/29 11:31:35;;;;;;;10.15;4.07;;;36.40;22.60;;;;;;4956665;28;20610;-63
2021/03/29 11:34:03;;;;;;;7.75;3.58;;;;;;;;;;4956483;28;20058;-64
2021/03/29 11:36:29;;;;;;;7.75;3.67;;;;;;;;;;4964432;28;20093;-65
2021/03/29 11:38:57;;;;;;;8.50;3.47;;;35.40;23.40;;;;;;4980683;28;20034;-64
2021/03/29 11:41:25;;;;;;;9.63;3.45;;;;;;;;;;4962263;28;20041;-63
2021/03/29 11:43:51;;;;;;;7.32;3.78;;;;;;;;;;4963851;28;20700;-63
2021/03/29 11:46:17;;;;;;;9.77;3.30;;;35.10;23.60;;;;;;4963726;28;20046;-63
2021/03/29 11:48:45;;;;;;;10.02;3.47;;;34.00;24.60;;;;;;4963208;28;20042;-63
2021/03/29 11:51:11;;;;;;;10.85;3.55;;;;;;;;;;4962725;28;20043;-63
2021/03/29 11:53:37;;;;;;;9.52;3.50;;;;;;;;;;4951136;28;20057;-64
2021/03/29 11:56:03;;;;;;;9.45;3.65;;;;;;;;;;4949771;28;20583;-64
2021/03/29 11:58:29;;;;;;;9.35;3.33;;;33.70;25.30;;;;;;4948040;28;20885;-63
2021/03/29 12:01:09;;;;;;;6.95;3.58;;;32.60;26.20;;;;;;4957568;28;20039;-65
2021/03/29 12:03:52;;;;;;;9.95;3.97;;;32.20;26.70;;;;;;4960192;28;20132;-64
2021/03/29 12:06:26;;;;;;;14.00;3.60;;;;;;;;;;4960869;28;20124;-65
2021/03/29 12:09:30;;;;;;;10.02;3.75;;;;;;;;;;4947371;28;20070;-64
2021/03/29 12:11:52;;;;;;;8.13;3.95;;;;;;;;;;4948062;28;20126;-63
2021/03/29 12:14:18;;;;;;;9.73;3.70;;;31.80;27.00;;;;;;4958368;28;20046;-64
2021/03/29 12:16:46;;;;;;;9.57;4.05;;;29.30;30.60;;;;;;4973831;28;20045;-64
2021/03/29 12:19:15;;;;;;;16.15;3.90;;;28.80;31.10;;;;;;4949935;28;20132;-63
2021/03/29 12:21:43;;;;;;;14.23;4.30;;;28.50;31.10;;;;;;4957954;28;20511;-62
2021/03/29 12:24:13;;;;;;;12.88;3.97;;;28.10;31.60;;;;;;4946650;28;20690;-62
2021/03/29 12:26:41;;;;;;;9.45;4.15;;;27.90;31.60;;;;;;4952285;28;20053;-63
2021/03/29 12:29:10;;;;;;;11.85;4.03;;;27.70;32.10;;;;;;4952339;28;20500;-63
2021/03/29 12:31:41;;;;;;;7.25;4.38;;;27.50;32.60;;;;;;4956564;28;20177;-64
2021/03/29 12:34:08;;;;;;;11.82;4.55;;;27.40;32.80;;;;;;4951588;28;20555;-63
2021/03/29 12:36:40;;;;;;;10.07;4.40;;;27.30;33.10;;;;;;4955138;28;20048;-63
2021/03/29 12:39:30;;;;;;;10.88;3.95;;;27.20;33.40;;;;;;4952700;28;20039;-63
2021/03/29 12:41:55;;;;;;;10.75;4.20;;;27.10;33.30;;;;;;4958000;28;20038;-62
2021/03/29 12:44:21;;;;;;;11.80;4.57;;;26.90;33.70;;;;;;4955724;28;20491;-63
2021/03/29 12:46:56;;;;;;;9.20;4.28;;;26.80;34.20;;;;;;4947637;28;20038;-64
2021/03/29 12:49:22;;;;;;;8.02;4.30;;;26.80;34.40;;;;;;4972867;28;20598;-63
2021/03/29 12:51:54;;;;;;;11.80;4.68;;;26.80;34.70;;;;;;4957119;28;20046;-62
2021/03/29 12:54:25;;;;;;;10.27;4.05;;;26.60;34.50;;;;;;4943337;28;20561;-62
2021/03/29 12:56:53;;;;;;;12.15;4.53;;;26.60;34.90;;;;;;4955009;28;20046;-63
2021/03/29 12:59:20;;;;;;;7.70;3.95;;;26.40;35.20;;;;;;4955757;28;20109;-63
2021/03/29 13:01:51;;;;;;;11.77;4.65;;;26.30;35.60;;;;;;4960570;28;20489;-62
2021/03/29 13:04:21;;;;;;;11.80;4.43;;;26.30;35.60;;;;;;4961781;28;20043;-63
2021/03/29 13:07:00;;;;;;;12.15;4.80;;;26.20;35.70;;;;;;4956802;28;20054;-62
2021/03/29 13:09:40;;;;;;;8.60;4.20;;;26.20;36.10;;;;;;4957346;28;20562;-63
2021/03/29 13:12:09;;;;;;;10.45;4.20;;;26.30;35.70;;;;;;4956299;28;20078;-63
2021/03/29 13:15:00;;;;;;;6.03;3.83;;;26.40;35.50;;;;;;4950912;28;20050;-63
2021/03/29 13:17:35;;;;;;;11.18;4.60;;;26.30;34.70;;;;;;4956456;28;20042;-63
2021/03/29 13:20:03;;;;;;;10.05;4.55;;;26.30;35.30;;;;;;4954594;28;20062;-64
2021/03/29 13:22:32;;;;;;;9.93;4.32;;;26.30;35.20;;;;;;4952413;28;20609;-63
2021/03/29 13:24:58;;;;;;;12.27;4.45;;;26.30;35.50;;;;;;4954179;28;20116;-62
2021/03/29 13:27:24;;;;;;;10.68;4.65;;;26.20;35.80;;;;;;4946977;28;20121;-64
2021/03/29 13:29:51;;;;;;;13.65;5.20;;;26.20;35.80;;;;;;4945550;28;20081;-64
2021/03/29 13:32:21;;;;;;;9.38;4.55;;;26.20;35.80;;;;;;4937165;28;20272;-64
2021/03/29 13:34:47;;;;;;;9.23;4.38;;;26.20;35.70;;;;;;4957156;28;20077;-63
2021/03/29 13:37:15;;;;;;;15.73;5.20;;;26.10;35.90;;;;;;4941862;28;20428;-63
2021/03/29 13:39:40;;;;;;;8.70;4.47;;;26.10;36.10;;;;;;4960242;28;20034;-63
2021/03/29 13:42:07;;;;;;;10.57;5.00;;;26.10;36.70;;;;;;4958875;28;20403;-63
2021/03/29 13:44:36;;;;;;;12.13;4.57;;;26.00;36.00;;;;;;4957850;28;20042;-63
2021/03/29 13:47:03;;;;;;;9.80;4.47;;;25.90;36.00;;;;;;4941068;28;20084;-64
2021/03/29 13:49:31;;;;;;;11.80;5.05;;;25.90;36.80;;;;;;4945206;28;20303;-63
2021/03/29 13:52:00;;;;;;;13.95;4.88;;;25.90;36.80;;;;;;4936475;28;20101;-63
2021/03/29 13:54:27;;;;;;;12.68;4.32;;;25.90;36.60;;;;;;4950755;28;20078;-63
2021/03/29 13:56:52;;;;;;;12.43;4.72;;;25.90;36.60;;;;;;4945563;28;20137;-64
2021/03/29 13:59:18;;;;;;;10.93;5.43;;;26.00;36.50;;;;;;4943207;28;20070;-63